Time;durP1;ratioP1;P1;durP2;ratioP2;P2;SDS_P1;SDS_P2;PMS_P1;PMS_P2;Temp;Humidity;BMP_temperature;BMP_pressure;BME280_temperature;BME280_humidity;BME280_pressure;Samples;Min_cycle;Max_cycle;Signal;HPM_P1;HPM_P2
2022/02/01 00:07:12;;;;;;;1999.90;999.90;;;;;;;4.75;69.70;100696.03;15694444;28;20661;-63
2022/02/01 00:15:10;;;;;;;1999.90;999.90;;;;;;;4.52;70.89;100697.69;15687412;28;20055;-62
2022/02/01 00:38:27;;;;;;;1999.90;999.90;;;;;;;4.39;72.11;100747.28;15678437;28;20498;-63
2022/02/01 00:46:02;;;;;;;1999.90;999.90;;;;;;;4.57;71.94;100722.47;15683618;28;20658;-62
2022/02/01 00:53:37;;;;;;;1999.90;999.90;;;;;;;4.22;73.14;100751.28;15684455;28;20068;-62
2022/02/01 01:01:10;;;;;;;1999.90;999.90;;;;;;;4.15;73.77;100759.06;15705819;28;20493;-62
2022/02/01 01:08:43;;;;;;;1999.90;999.90;;;;;;;4.42;73.04;100757.75;15651081;28;20408;-62
2022/02/01 01:16:32;;;;;;;1999.90;999.90;;;;;;;4.57;72.45;100750.13;15705129;28;20144;-61
2022/02/01 01:55:28;;;;;;;1999.90;999.90;;;;;;;4.57;73.58;100730.78;15659476;28;20152;-63
2022/02/01 02:03:01;;;;;;;1999.90;999.90;;;;;;;4.50;73.27;100718.44;15667949;28;20494;-62
2022/02/01 02:10:39;;;;;;;1999.90;999.90;;;;;;;4.81;72.36;100725.28;15669145;28;20067;-62
2022/02/01 02:18:13;;;;;;;1999.90;999.90;;;;;;;4.50;73.39;100719.25;15671425;28;20040;-62
2022/02/01 02:25:46;;;;;;;;;;;;;;;4.68;73.25;100736.19;15678194;28;20041;-62
2022/02/01 02:33:19;;;;;;;1999.90;999.90;;;;;;;4.68;72.60;100727.91;15701504;28;20019;-61
2022/02/01 02:41:04;;;;;;;1999.90;999.90;;;;;;;4.55;73.62;100721.97;15672093;28;20053;-61
2022/02/01 02:48:36;;;;;;;1999.90;999.90;;;;;;;4.53;73.41;100723.38;15717436;28;20041;-62
2022/02/01 02:56:12;;;;;;;1999.90;999.90;;;;;;;4.97;71.77;100727.84;15708120;28;20048;-62
2022/02/01 03:03:45;;;;;;;1999.90;999.90;;;;;;;4.68;72.40;100725.94;15684421;28;20135;-62
2022/02/01 03:11:18;;;;;;;1999.90;999.90;;;;;;;4.84;72.39;100719.16;15651794;28;20037;-62
2022/02/01 03:26:53;;;;;;;1999.90;999.90;;;;;;;4.60;72.76;100698.97;15628811;22;19920;-60
2022/02/01 03:34:25;;;;;;;1999.90;999.90;;;;;;;4.47;72.88;100697.72;15736272;28;20044;-61
2022/02/01 03:42:00;;;;;;;1999.90;999.90;;;;;;;4.54;73.30;100711.19;15759695;28;20055;-59
2022/02/01 03:49:35;;;;;;;1999.90;999.90;;;;;;;4.85;71.74;100728.25;15768494;28;20056;-60
2022/02/01 03:57:11;;;;;;;1999.90;999.90;;;;;;;4.55;73.10;100738.53;15749956;28;20050;-60
2022/02/01 04:04:45;;;;;;;1999.90;999.90;;;;;;;4.74;72.07;100735.03;15734249;28;20041;-59
2022/02/01 04:12:19;;;;;;;1999.90;999.90;;;;;;;4.59;72.74;100706.44;15756364;28;20485;-59
2022/02/01 04:19:51;;;;;;;1999.90;999.90;;;;;;;4.26;73.26;100707.31;15768202;28;20456;-61
2022/02/01 04:27:30;;;;;;;1999.90;999.90;;;;;;;4.25;73.65;100702.91;15756763;28;20445;-59
2022/02/01 04:35:03;;;;;;;1999.90;999.90;;;;;;;4.49;72.57;100675.34;15774168;28;20070;-61
2022/02/01 04:42:38;;;;;;;1999.90;999.90;;;;;;;4.57;72.39;100664.44;15752738;28;20048;-59
2022/02/01 04:50:13;;;;;;;1999.90;999.90;;;;;;;4.61;72.39;100667.47;15766689;28;20055;-60
2022/02/01 04:57:54;;;;;;;1999.90;999.90;;;;;;;4.39;72.61;100648.66;15793604;28;20097;-60
2022/02/01 05:05:29;;;;;;;1999.90;999.90;;;;;;;4.58;72.69;100654.22;15751964;28;20040;-59
2022/02/01 05:13:30;;;;;;;1999.90;999.90;;;;;;;4.74;71.82;100657.63;15750140;28;20068;-60
2022/02/01 05:21:06;;;;;;;1999.90;999.90;;;;;;;3.93;76.01;100653.81;15755169;28;20095;-60
2022/02/01 05:28:41;;;;;;;1999.90;999.90;;;;;;;4.20;76.20;100643.03;15771029;28;20036;-57
2022/02/01 05:36:13;;;;;;;1999.90;999.90;;;;;;;3.96;77.17;100658.72;15765843;28;20109;-60
2022/02/01 05:43:47;;;;;;;1999.90;999.90;;;;;;;4.01;77.29;100662.28;15777466;28;20084;-62
2022/02/01 05:51:20;;;;;;;1999.90;999.90;;;;;;;3.86;79.03;100658.84;15780994;28;20044;-60
2022/02/01 05:58:58;;;;;;;1999.90;999.90;;;;;;;3.91;78.70;100678.94;15748393;28;20358;-61
2022/02/01 06:06:31;;;;;;;1999.90;999.90;;;;;;;4.11;78.09;100679.88;15727683;28;20108;-60
2022/02/01 06:14:04;;;;;;;1999.90;999.90;;;;;;;4.21;77.66;100677.00;15700363;28;20101;-60
2022/02/01 06:21:37;;;;;;;1999.90;999.90;;;;;;;4.11;78.06;100680.69;15735615;28;20041;-60
2022/02/01 06:29:10;;;;;;;1999.90;999.90;;;;;;;4.17;78.09;100695.25;15751989;28;20040;-59
2022/02/01 06:36:43;;;;;;;;;;;;;;;4.39;77.35;100705.84;15790648;28;20309;-60
2022/02/01 06:44:16;;;;;;;1999.90;999.90;;;;;;;4.05;78.33;100699.22;15793641;28;19963;-58
2022/02/01 06:51:48;;;;;;;1999.90;999.90;;;;;;;4.15;77.89;100714.06;15795394;28;20115;-61
2022/02/01 06:59:21;;;;;;;1999.90;999.90;;;;;;;4.40;77.43;100702.78;15776937;28;20458;-61
2022/02/01 07:06:54;;;;;;;1999.90;999.90;;;;;;;4.22;77.33;100701.56;15794643;28;20040;-59
2022/02/01 07:14:27;;;;;;;1999.90;999.90;;;;;;;4.31;77.23;100690.72;15751513;28;20465;-60
2022/02/01 07:21:59;;;;;;;1999.90;999.90;;;;;;;4.13;77.74;100692.28;15741328;28;20449;-60
2022/02/01 07:29:32;;;;;;;1999.90;999.90;;;;;;;4.54;77.36;100689.09;15744836;28;20040;-61
2022/02/01 07:37:05;;;;;;;1999.90;999.90;;;;;;;4.21;77.25;100677.00;15742625;28;20055;-61
2022/02/01 07:44:38;;;;;;;1999.90;999.90;;;;;;;4.19;77.72;100682.00;15742235;28;20456;-60
2022/02/01 07:52:10;;;;;;;1999.90;999.90;;;;;;;4.43;76.70;100680.09;15725700;28;20041;-61
2022/02/01 07:59:44;;;;;;;1999.90;999.90;;;;;;;4.72;76.04;100677.28;15739096;28;20052;-60
2022/02/01 08:07:16;;;;;;;;;;;;;;;4.48;77.07;100668.16;15722473;28;20044;-61
2022/02/01 08:23:00;;;;;;;1999.90;999.90;;;;;;;4.90;75.98;100683.97;15709603;28;20523;-60
2022/02/01 08:30:33;;;;;;;1999.90;999.90;;;;;;;5.11;75.04;100671.53;15737405;28;20040;-59
2022/02/01 08:38:07;;;;;;;1999.90;999.90;;;;;;;5.08;74.51;100683.16;15738066;28;20044;-61
2022/02/01 08:45:41;;;;;;;1999.90;999.90;;;;;;;5.07;75.20;100672.41;15719218;28;20588;-59
2022/02/01 08:53:16;;;;;;;1999.90;999.90;;;;;;;4.73;75.42;100662.34;15736381;28;20102;-59
2022/02/01 09:00:50;;;;;;;1999.90;999.90;;;;;;;5.32;74.00;100638.84;15734988;28;20044;-60
2022/02/01 09:08:23;;;;;;;1999.90;999.90;;;;;;;5.50;73.88;100628.88;15736530;28;20477;-60
2022/02/01 09:16:00;;;;;;;1999.90;999.90;;;;;;;5.24;75.97;100619.34;15736878;28;20044;-61
2022/02/01 09:23:34;;;;;;;1999.90;999.90;;;;;;;5.26;75.26;100590.25;15734725;28;20094;-60
2022/02/01 09:31:09;;;;;;;1999.90;999.90;;;;;;;5.44;75.32;100586.63;15719622;22;20475;-62
2022/02/01 09:38:42;;;;;;;1999.90;999.90;;;;;;;5.54;74.71;100585.66;15685425;28;20052;-63
2022/02/01 09:46:17;;;;;;;1999.90;999.90;;;;;;;5.78;73.68;100560.56;15664309;28;20111;-63
2022/02/01 09:53:49;;;;;;;1999.90;999.90;;;;;;;5.60;73.78;100537.34;15662711;28;20068;-63
2022/02/01 10:01:27;;;;;;;1999.90;999.90;;;;;;;6.00;72.64;100533.03;15682505;28;20467;-63
2022/02/01 10:09:06;;;;;;;1999.90;999.90;;;;;;;5.99;71.78;100509.25;15670409;28;20064;-63
2022/02/01 10:16:48;;;;;;;1999.90;999.90;;;;;;;6.36;70.93;100504.63;15695208;28;20136;-63
2022/02/01 10:24:31;;;;;;;1999.90;999.90;;;;;;;6.05;71.40;100519.09;15661569;28;20147;-62
2022/02/01 10:32:17;;;;;;;1999.90;999.90;;;;;;;6.43;70.14;100496.69;15643363;28;20067;-64
2022/02/01 10:39:55;;;;;;;1999.90;999.90;;;;;;;5.82;71.36;100467.44;15676667;28;20051;-63
2022/02/01 10:47:38;;;;;;;1999.90;999.90;;;;;;;6.08;69.91;100454.78;15671269;28;20483;-64
2022/02/01 10:55:11;;;;;;;1999.90;999.90;;;;;;;6.19;69.88;100429.63;15683849;28;20075;-63
2022/02/01 11:02:46;;;;;;;1999.90;999.90;;;;;;;6.38;69.97;100418.41;15669799;28;20041;-64
2022/02/01 11:10:19;;;;;;;1999.90;999.90;;;;;;;6.22;70.19;100402.09;15669411;28;20055;-62
2022/02/01 11:17:53;;;;;;;1999.90;999.90;;;;;;;6.52;69.99;100375.63;15652505;28;20060;-62
2022/02/01 11:25:29;;;;;;;1999.90;999.90;;;;;;;6.49;69.85;100344.97;15679621;28;20037;-61
2022/02/01 11:33:05;;;;;;;1999.90;999.90;;;;;;;6.38;68.91;100322.22;15667035;28;20139;-63
2022/02/01 11:40:41;;;;;;;1999.90;999.90;;;;;;;6.73;68.96;100301.06;15685047;28;20033;-62
2022/02/01 11:48:20;;;;;;;1999.90;999.90;;;;;;;6.78;68.65;100280.72;15685829;28;20049;-63
2022/02/01 11:55:54;;;;;;;1999.90;999.90;;;;;;;6.38;69.27;100266.78;15674261;23;20068;-61
2022/02/01 12:03:30;;;;;;;1999.90;999.90;;;;;;;6.49;68.60;100243.22;15726552;28;20048;-61
2022/02/01 12:11:05;;;;;;;1999.90;999.90;;;;;;;6.66;68.05;100217.53;15728870;28;20123;-60
2022/02/01 12:18:50;;;;;;;1999.90;999.90;;;;;;;6.85;67.54;100195.09;15746517;28;20052;-57
2022/02/01 12:26:25;;;;;;;1999.90;999.90;;;;;;;6.50;69.12;100175.56;15723465;28;20108;-64
2022/02/01 12:34:01;;;;;;;1999.90;999.90;;;;;;;6.83;69.41;100147.47;15726185;28;20087;-59
2022/02/01 12:41:42;;;;;;;1999.90;999.90;;;;;;;6.78;69.76;100112.41;15726093;28;20094;-60
2022/02/01 12:49:16;;;;;;;1999.90;999.90;;;;;;;6.70;70.04;100076.31;15724582;28;20053;-59
2022/02/01 12:56:49;;;;;;;;;;;;;;;6.72;70.82;100021.34;15708467;28;20049;-59
2022/02/01 13:04:23;;;;;;;1999.90;999.90;;;;;;;6.16;72.31;99987.81;15724585;28;19920;-61
2022/02/01 13:20:11;;;;;;;1999.90;999.90;;;;;;;6.10;73.15;99925.38;15720939;28;20459;-61
2022/02/01 13:27:43;;;;;;;1999.90;999.90;;;;;;;5.79;73.57;99878.34;15739822;28;20045;-60
2022/02/01 13:35:17;;;;;;;1999.90;999.90;;;;;;;5.73;73.77;99847.25;15739643;28;20091;-60
2022/02/01 13:42:49;;;;;;;1999.90;999.90;;;;;;;5.64;74.62;99840.88;15704757;28;20131;-59
2022/02/01 13:50:24;;;;;;;1999.90;999.90;;;;;;;5.39;75.90;99813.94;15739397;28;20067;-59
2022/02/01 13:58:07;;;;;;;1999.90;999.90;;;;;;;5.33;77.33;99798.63;15739897;28;20428;-61
2022/02/01 14:05:41;;;;;;;1999.90;999.90;;;;;;;4.98;78.61;99787.41;15740828;28;20382;-61
2022/02/01 14:28:58;;;;;;;1999.90;999.90;;;;;;;4.85;80.06;99710.94;15738205;28;20045;-59
2022/02/01 14:36:38;;;;;;;1999.90;999.90;;;;;;;4.64;81.17;99699.63;15703307;28;20048;-61
2022/02/01 14:44:31;;;;;;;1999.90;999.90;;;;;;;4.44;81.45;99673.38;15720599;28;20102;-60
2022/02/01 14:52:05;;;;;;;;;;;;;;;4.78;80.49;99653.34;15717032;28;20386;-59
2022/02/01 15:07:49;;;;;;;1999.90;999.90;;;;;;;4.50;82.07;99622.38;15719612;28;20045;-62
2022/02/01 15:15:21;;;;;;;1999.90;999.90;;;;;;;4.40;83.13;99611.63;15736746;28;20044;-63
2022/02/01 15:22:55;;;;;;;1999.90;999.90;;;;;;;4.82;82.31;99592.72;15718194;28;20148;-60
2022/02/01 15:30:27;;;;;;;1999.90;999.90;;;;;;;4.84;82.86;99584.94;15723617;28;20064;-61
2022/02/01 15:38:02;;;;;;;1999.90;999.90;;;;;;;4.87;83.23;99556.63;15717268;28;20094;-57
2022/02/01 16:01:35;;;;;;;1999.90;999.90;;;;;;;5.10;83.39;99502.81;15754575;28;20047;-61
2022/02/01 16:09:17;;;;;;;1999.90;999.90;;;;;;;5.17;84.34;99496.78;15746999;28;20040;-61
2022/02/01 16:16:49;;;;;;;1999.90;999.90;;;;;;;5.37;83.89;99460.16;15734020;28;20095;-59
2022/02/01 16:24:22;;;;;;;1999.90;999.90;;;;;;;5.42;84.67;99470.25;15724344;28;20091;-61
2022/02/01 16:31:54;;;;;;;1999.90;999.90;;;;;;;5.76;84.13;99444.44;15709284;28;20044;-61
2022/02/01 16:39:28;;;;;;;1999.90;999.90;;;;;;;5.91;83.93;99438.34;15743863;28;20044;-59
2022/02/01 16:47:00;;;;;;;1999.90;999.90;;;;;;;6.15;83.01;99409.22;15725797;28;20041;-59
2022/02/01 16:54:42;;;;;;;1999.90;999.90;;;;;;;6.43;82.98;99396.50;15744107;28;20423;-59
2022/02/01 17:02:14;;;;;;;1999.90;999.90;;;;;;;6.25;84.12;99387.53;15729856;28;20094;-58
2022/02/01 17:09:50;;;;;;;1999.90;999.90;;;;;;;6.40;84.23;99380.56;15724579;28;20075;-59
2022/02/01 17:17:38;;;;;;;1999.90;999.90;;;;;;;6.35;84.63;99386.28;15707257;28;20067;-59
2022/02/01 17:25:13;;;;;;;1999.90;999.90;;;;;;;6.51;85.16;99380.97;15741534;28;20119;-59
2022/02/01 17:32:45;;;;;;;1999.90;999.90;;;;;;;7.06;83.53;99372.28;15740019;28;20068;-60
2022/02/01 17:40:22;;;;;;;1999.90;999.90;;;;;;;6.94;85.01;99377.81;15740537;28;20287;-61
2022/02/01 17:47:56;;;;;;;1999.90;999.90;;;;;;;6.95;84.94;99351.69;15731136;28;20108;-60
2022/02/01 17:55:30;;;;;;;1999.90;999.90;;;;;;;7.11;84.37;99372.09;15706063;28;20053;-60
2022/02/01 18:03:02;;;;;;;1999.90;999.90;;;;;;;7.16;84.20;99348.84;15738094;28;20126;-59
2022/02/01 18:10:36;;;;;;;1999.90;999.90;;;;;;;7.00;84.79;99320.19;15721561;28;20511;-62
2022/02/01 18:18:09;;;;;;;1999.90;999.90;;;;;;;6.97;84.15;99320.84;15720875;28;20048;-61
2022/02/01 18:25:45;;;;;;;1999.90;999.90;;;;;;;7.55;82.61;99347.41;15738213;28;20098;-62
2022/02/01 18:33:18;;;;;;;1999.90;999.90;;;;;;;7.66;82.00;99350.56;15720151;28;20301;-61
2022/02/01 18:40:58;;;;;;;1999.90;999.90;;;;;;;7.60;82.78;99338.84;15737702;28;20044;-62
2022/02/01 18:48:34;;;;;;;1999.90;999.90;;;;;;;7.52;81.67;99353.66;15720101;28;20048;-61
2022/02/01 18:56:24;;;;;;;1999.90;999.90;;;;;;;7.78;80.70;99354.13;15720334;28;20078;-60
2022/02/01 19:04:24;;;;;;;1999.90;999.90;;;;;;;7.79;80.54;99355.75;15658673;28;20131;-62
2022/02/01 19:12:00;;;;;;;1999.90;999.90;;;;;;;7.97;79.96;99353.53;15730109;28;20486;-63
2022/02/01 19:19:31;;;;;;;1999.90;999.90;;;;;;;8.12;79.70;99343.69;15730783;28;20059;-62
2022/02/01 19:27:07;;;;;;;1999.90;999.90;;;;;;;7.96;79.97;99365.81;15729518;28;20455;-62
2022/02/01 19:34:43;;;;;;;1999.90;999.90;;;;;;;8.07;79.21;99357.81;15730077;28;20457;-63
2022/02/01 19:42:19;;;;;;;1999.90;999.90;;;;;;;7.87;78.79;99356.78;15730182;28;20037;-63
2022/02/01 19:49:51;;;;;;;1999.90;999.90;;;;;;;8.05;77.94;99344.28;15713182;28;20067;-62
2022/02/01 19:57:30;;;;;;;1999.90;999.90;;;;;;;8.11;77.97;99356.75;15711774;28;20116;-61
2022/02/01 20:05:03;;;;;;;1999.90;999.90;;;;;;;7.94;78.77;99364.56;15728342;28;20045;-63
2022/02/01 20:12:39;;;;;;;1999.90;999.90;;;;;;;8.22;78.15;99350.72;15727383;28;20448;-62
2022/02/01 20:20:17;;;;;;;1999.90;999.90;;;;;;;8.29;76.61;99348.16;15710932;28;20303;-62
2022/02/01 20:27:50;;;;;;;1999.90;999.90;;;;;;;8.16;76.92;99355.72;15741396;28;20413;-62
2022/02/01 20:35:24;;;;;;;1999.90;999.90;;;;;;;8.35;75.67;99364.28;15744467;28;20059;-62
2022/02/01 20:42:57;;;;;;;1999.90;999.90;;;;;;;8.17;76.05;99379.56;15726524;28;20091;-62
2022/02/01 20:50:39;;;;;;;1999.90;999.90;;;;;;;8.41;74.86;99380.72;15744162;28;20343;-62
2022/02/01 20:58:14;;;;;;;1999.90;999.90;;;;;;;8.21;74.71;99379.66;15725607;28;20475;-62
2022/02/01 21:05:47;;;;;;;1999.90;999.90;;;;;;;8.33;73.74;99410.22;15708089;28;20064;-62
2022/02/01 21:13:23;;;;;;;1999.90;999.90;;;;;;;8.23;73.31;99416.25;15723947;28;20390;-62
2022/02/01 21:20:55;;;;;;;1999.90;999.90;;;;;;;8.04;73.41;99423.22;15724066;28;20083;-61
2022/02/01 21:28:29;;;;;;;1999.90;999.90;;;;;;;7.96;73.99;99420.56;15740966;28;20068;-62
2022/02/01 21:36:01;;;;;;;1999.90;999.90;;;;;;;7.80;73.97;99415.69;15739908;28;20049;-62
2022/02/01 21:43:35;;;;;;;1999.90;999.90;;;;;;;7.94;74.85;99436.78;15722689;28;20067;-62
2022/02/01 21:51:07;;;;;;;1999.90;999.90;;;;;;;8.14;74.83;99427.50;15722084;28;20068;-62
2022/02/01 21:58:40;;;;;;;1999.90;999.90;;;;;;;8.01;74.98;99431.44;15721332;28;20127;-62
2022/02/01 22:06:12;;;;;;;1999.90;999.90;;;;;;;8.04;74.15;99437.13;15739833;28;20036;-62
2022/02/01 22:13:46;;;;;;;1999.90;999.90;;;;;;;7.86;75.94;99457.94;15721702;28;20135;-62
2022/02/01 22:21:18;;;;;;;1999.90;999.90;;;;;;;7.89;78.23;99457.22;15720863;28;20460;-62
2022/02/01 22:28:51;;;;;;;1999.90;999.90;;;;;;;7.63;78.00;99440.91;15706791;28;20056;-63
2022/02/01 22:36:23;;;;;;;1999.90;999.90;;;;;;;7.93;77.11;99466.50;15738052;28;20068;-62
2022/02/01 22:43:56;;;;;;;1999.90;999.90;;;;;;;7.76;76.94;99450.06;15720234;28;20048;-62
2022/02/01 22:51:28;;;;;;;1999.90;999.90;;;;;;;7.50;76.07;99466.97;15729646;28;20528;-61
2022/02/01 22:59:02;;;;;;;1999.90;999.90;;;;;;;7.73;75.12;99473.75;15736908;28;20128;-62
2022/02/01 23:06:34;;;;;;;1999.90;999.90;;;;;;;7.73;74.67;99471.00;15751103;28;20056;-62
2022/02/01 23:21:57;;;;;;;1999.90;999.90;;;;;;;7.66;74.86;99486.59;15749264;28;20106;-62
2022/02/01 23:29:30;;;;;;;1999.90;999.90;;;;;;;7.92;74.06;99492.66;15730425;28;20087;-61
2022/02/01 23:47:47;;;;;;;1999.90;999.90;;;;;;;7.85;73.49;99488.81;15730063;28;20033;-62
2022/02/01 23:52:47;;;;;;;1999.90;999.90;;;;;;;8.07;72.31;99496.72;15747219;28;20041;-62
